createdAt,value
2018-05-26T00:00:03.836Z,99.90
2018-05-26T00:03:13.215Z,99.90
2018-05-26T00:06:22.735Z,99.90
2018-05-26T00:09:32.372Z,99.90
2018-05-26T00:12:41.828Z,99.90
2018-05-26T00:15:53.980Z,99.90
2018-05-26T00:19:03.373Z,99.90
2018-05-26T00:22:12.819Z,99.90
2018-05-26T00:25:22.953Z,99.90
2018-05-26T00:28:32.705Z,99.90
2018-05-26T00:31:42.277Z,99.90
2018-05-26T00:34:56.143Z,99.90
2018-05-26T00:38:05.473Z,99.90
2018-05-26T00:41:14.972Z,99.90
2018-05-26T00:44:24.809Z,99.90
2018-05-26T00:47:34.296Z,99.90
2018-05-26T00:50:44.163Z,99.90
2018-05-26T00:53:56.400Z,99.90
2018-05-26T00:57:05.904Z,99.90
2018-05-26T01:00:16.229Z,99.90
2018-05-26T01:03:25.753Z,99.90
2018-05-26T01:06:35.638Z,99.90
2018-05-26T01:09:45.716Z,99.90
2018-05-26T01:12:57.682Z,99.90
2018-05-26T01:16:07.740Z,99.90
2018-05-26T01:19:17.076Z,99.90
2018-05-26T01:22:27.341Z,99.90
2018-05-26T01:25:37.414Z,99.90
2018-05-26T01:28:47.727Z,99.90
2018-05-26T01:31:58.304Z,99.90
2018-05-26T01:35:07.644Z,99.90
2018-05-26T01:38:17.762Z,99.90
2018-05-26T01:41:27.469Z,99.90
2018-05-26T01:44:37.413Z,99.90
2018-05-26T01:47:47.658Z,99.90
2018-05-26T01:54:08.485Z,99.90
2018-05-26T01:57:18.624Z,99.90
2018-05-26T02:00:28.100Z,99.90
2018-05-26T02:03:37.557Z,99.90
2018-05-26T02:06:46.866Z,99.90
2018-05-26T02:09:56.397Z,99.90
2018-05-26T02:13:06.221Z,99.90
2018-05-26T02:16:15.655Z,99.90
2018-05-26T02:19:25.966Z,99.90
2018-05-26T02:22:35.597Z,99.90
2018-05-26T02:25:44.984Z,99.90
2018-05-26T02:28:54.689Z,99.90
2018-05-26T02:32:05.008Z,99.90
2018-05-26T02:35:14.813Z,99.90
2018-05-26T02:38:24.283Z,99.90
2018-05-26T02:41:34.596Z,99.90
2018-05-26T02:44:43.920Z,99.90
2018-05-26T02:47:58.213Z,99.90
2018-05-26T02:51:07.548Z,99.90
2018-05-26T02:54:17.114Z,99.90
2018-05-26T02:57:27.353Z,99.90
2018-05-26T03:00:37.569Z,99.90
2018-05-26T03:03:46.439Z,99.90
2018-05-26T03:07:01.925Z,99.90
2018-05-26T03:10:17.629Z,99.90
2018-05-26T03:13:32.964Z,99.90
2018-05-26T03:16:51.792Z,99.90
2018-05-26T03:20:04.384Z,99.90
2018-05-26T03:23:14.173Z,99.90
2018-05-26T03:26:24.049Z,99.90
2018-05-26T03:29:33.761Z,99.90
2018-05-26T03:32:44.041Z,99.90
2018-05-26T03:35:53.718Z,99.90
2018-05-26T03:39:06.504Z,99.90
2018-05-26T03:42:15.900Z,99.90
2018-05-26T03:45:25.586Z,99.90
2018-05-26T03:48:35.481Z,99.90
2018-05-26T03:51:45.749Z,99.90
2018-05-26T03:59:06.336Z,99.90
2018-05-26T04:02:15.621Z,99.90
2018-05-26T04:05:25.165Z,99.90
2018-05-26T04:08:34.749Z,99.90
2018-05-26T04:11:45.073Z,99.90
2018-05-26T04:14:55.045Z,99.90
2018-05-26T04:18:05.722Z,99.90
2018-05-26T04:21:15.667Z,99.90
2018-05-26T04:24:26.656Z,99.90
2018-05-26T04:27:36.160Z,99.90
2018-05-26T04:30:46.377Z,99.90
2018-05-26T04:33:56.300Z,99.90
2018-05-26T04:37:08.189Z,99.90
2018-05-26T04:40:18.417Z,99.90
2018-05-26T04:43:27.832Z,99.90
2018-05-26T04:46:37.157Z,99.90
2018-05-26T04:49:47.382Z,99.90
2018-05-26T04:52:57.731Z,99.90
2018-05-26T04:56:09.201Z,99.90
2018-05-26T04:59:19.072Z,99.90
2018-05-26T05:02:29.284Z,99.90
2018-05-26T05:05:38.793Z,99.90
2018-05-26T05:08:48.650Z,99.90
2018-05-26T05:11:58.045Z,99.90
2018-05-26T05:15:10.406Z,99.90
2018-05-26T05:18:21.621Z,99.90
2018-05-26T05:21:32.155Z,99.90
2018-05-26T05:24:41.754Z,99.90
2018-05-26T05:27:51.953Z,99.90
2018-05-26T05:31:01.403Z,99.90
2018-05-26T05:34:11.733Z,99.90
2018-05-26T05:37:21.165Z,99.90
2018-05-26T05:40:30.913Z,99.90
2018-05-26T05:43:41.200Z,99.90
2018-05-26T05:46:51.169Z,99.90
2018-05-26T05:50:01.274Z,99.90
2018-05-26T05:53:13.022Z,99.90
2018-05-26T05:56:22.573Z,99.90
2018-05-26T05:59:32.241Z,99.90
2018-05-26T06:02:42.064Z,99.90
2018-05-26T06:05:52.072Z,99.90
2018-05-26T06:09:02.623Z,99.90
2018-05-26T06:12:13.205Z,99.90
2018-05-26T06:15:23.824Z,99.90
2018-05-26T06:28:32.358Z,99.90
2018-05-26T06:31:45.019Z,99.90
2018-05-26T06:34:55.922Z,99.90
2018-05-26T06:38:05.773Z,99.90
2018-05-26T06:41:15.744Z,99.90
2018-05-26T06:44:25.872Z,99.90
2018-05-26T06:47:35.520Z,99.90
2018-05-26T06:50:45.583Z,99.90
2018-05-26T06:53:55.769Z,99.90
2018-05-26T06:57:05.458Z,99.90
2018-05-26T07:00:16.523Z,99.90
2018-05-26T07:03:26.041Z,99.90
2018-05-26T07:06:35.899Z,99.90
2018-05-26T07:09:45.177Z,99.90
2018-05-26T07:12:55.536Z,99.90
2018-05-26T07:16:05.712Z,99.90
2018-05-26T07:19:16.120Z,99.90
2018-05-26T07:22:25.916Z,99.90
2018-05-26T07:25:35.647Z,99.90
2018-05-26T07:28:45.749Z,99.90
2018-05-26T07:31:56.570Z,99.90
2018-05-26T07:35:06.934Z,99.90
2018-05-26T07:38:17.108Z,99.90
2018-05-26T07:41:27.345Z,99.90
2018-05-26T07:44:37.767Z,99.90
2018-05-26T07:47:47.666Z,99.90
2018-05-26T07:50:57.468Z,99.90
2018-05-26T07:54:07.345Z,99.90
2018-05-26T07:57:18.777Z,99.90
2018-05-26T08:00:28.940Z,99.90
2018-05-26T08:03:38.664Z,99.90
2018-05-26T08:06:48.805Z,99.90
2018-05-26T08:09:59.054Z,99.90
2018-05-26T08:13:09.272Z,99.90
2018-05-26T08:16:19.500Z,99.90
2018-05-26T08:19:29.620Z,99.90
2018-05-26T08:22:39.790Z,99.90
2018-05-26T08:25:49.978Z,99.90
2018-05-26T08:29:00.461Z,99.90
2018-05-26T08:32:10.070Z,99.90
2018-05-26T08:35:22.071Z,99.90
2018-05-26T08:38:31.476Z,99.90
2018-05-26T08:41:41.650Z,99.90
2018-05-26T08:44:51.277Z,99.90
2018-05-26T08:48:00.920Z,99.90
2018-05-26T08:51:11.321Z,99.90
2018-05-26T08:57:32.206Z,99.90
2018-05-26T09:00:42.561Z,99.90
2018-05-26T09:03:53.132Z,99.90
2018-05-26T09:07:02.813Z,99.90
2018-05-26T09:10:12.776Z,99.90
2018-05-26T09:13:23.138Z,99.90
2018-05-26T09:16:32.439Z,99.90
2018-05-26T09:19:42.568Z,99.90
2018-05-26T09:22:52.351Z,99.60
2018-05-26T09:26:02.580Z,99.80
2018-05-26T09:29:13.127Z,99.90
2018-05-26T09:32:23.093Z,99.50
2018-05-26T09:35:33.729Z,98.40
2018-05-26T09:38:43.420Z,97.50
2018-05-26T09:41:52.863Z,97.90
2018-05-26T09:45:02.381Z,97.60
2018-05-26T09:48:11.919Z,97.80
2018-05-26T09:54:32.323Z,95.70
2018-05-26T09:57:44.687Z,92.40
2018-05-26T10:00:55.516Z,90.00
2018-05-26T10:04:04.893Z,88.00
2018-05-26T10:07:14.446Z,85.90
2018-05-26T10:10:24.246Z,81.10
2018-05-26T10:13:33.841Z,81.70
2018-05-26T10:16:43.833Z,82.20
2018-05-26T10:19:54.126Z,81.00
2018-05-26T10:23:03.504Z,77.70
2018-05-26T10:26:13.001Z,77.80
2018-05-26T10:29:23.794Z,74.80
2018-05-26T10:32:33.275Z,74.20
2018-05-26T10:35:44.635Z,73.90
2018-05-26T10:38:54.353Z,70.20
2018-05-26T10:42:04.577Z,62.60
2018-05-26T10:45:13.982Z,65.20
2018-05-26T10:51:34.419Z,62.30
2018-05-26T10:54:48.032Z,62.30
2018-05-26T10:57:58.156Z,62.00
2018-05-26T11:01:08.012Z,58.50
2018-05-26T11:04:17.593Z,63.10
2018-05-26T11:07:27.165Z,62.00
2018-05-26T11:10:37.418Z,57.80
2018-05-26T11:13:47.317Z,55.90
2018-05-26T11:16:56.751Z,56.60
2018-05-26T11:20:06.293Z,59.10
2018-05-26T11:23:15.895Z,58.60
2018-05-26T11:26:26.721Z,56.20
2018-05-26T11:29:36.099Z,56.70
2018-05-26T11:32:45.676Z,56.80
2018-05-26T11:35:55.116Z,58.90
2018-05-26T11:39:06.193Z,53.90
2018-05-26T11:42:15.995Z,55.30
2018-05-26T11:48:36.529Z,56.20
2018-05-26T11:51:45.928Z,54.80
2018-05-26T11:54:56.121Z,53.70
2018-05-26T11:58:06.284Z,53.00
2018-05-26T12:01:15.720Z,55.40
2018-05-26T12:04:25.275Z,55.60
2018-05-26T12:07:35.548Z,54.90
2018-05-26T12:10:45.142Z,53.50
2018-05-26T12:13:55.346Z,52.30
2018-05-26T12:17:04.672Z,53.30
2018-05-26T12:20:14.128Z,53.20
2018-05-26T12:23:24.133Z,53.70
2018-05-26T12:26:34.197Z,55.00
2018-05-26T12:29:43.536Z,56.10
2018-05-26T12:32:52.918Z,55.10
2018-05-26T12:36:02.805Z,56.20
2018-05-26T12:39:12.223Z,54.50
2018-05-26T12:42:21.660Z,53.60
2018-05-26T12:45:31.052Z,52.90
2018-05-26T12:48:40.678Z,52.70
2018-05-26T12:51:50.902Z,52.50
2018-05-26T12:55:01.172Z,53.70
2018-05-26T12:58:11.386Z,52.70
2018-05-26T13:01:20.855Z,53.40
2018-05-26T13:04:31.348Z,52.70
2018-05-26T13:07:41.564Z,52.90
2018-05-26T13:10:50.946Z,53.20
2018-05-26T13:14:01.541Z,52.30
2018-05-26T13:17:11.135Z,52.70
2018-05-26T13:20:20.608Z,46.80
2018-05-26T13:23:32.185Z,46.40
2018-05-26T13:26:41.694Z,45.80
2018-05-26T13:29:51.273Z,46.90
2018-05-26T13:33:00.674Z,46.30
2018-05-26T13:36:10.230Z,45.20
2018-05-26T13:39:19.681Z,44.70
2018-05-26T13:42:29.112Z,45.50
2018-05-26T13:45:39.126Z,46.10
2018-05-26T13:48:49.748Z,46.00
2018-05-26T13:51:59.704Z,46.70
2018-05-26T13:55:09.288Z,46.10
2018-05-26T13:58:18.674Z,46.00
2018-05-26T14:01:28.171Z,44.70
2018-05-26T14:04:37.579Z,47.50
2018-05-26T14:07:47.096Z,48.40
2018-05-26T14:10:57.405Z,44.60
2018-05-26T14:14:06.796Z,42.80
2018-05-26T14:17:16.367Z,40.50
2018-05-26T14:20:25.890Z,41.80
2018-05-26T14:23:35.255Z,42.00
2018-05-26T14:26:44.957Z,39.90
2018-05-26T14:29:54.512Z,41.80
2018-05-26T14:33:04.883Z,40.80
2018-05-26T14:36:15.267Z,39.10
2018-05-26T14:39:24.576Z,40.20
2018-05-26T14:42:35.273Z,39.80
2018-05-26T14:45:45.702Z,38.80
2018-05-26T14:48:56.251Z,42.30
2018-05-26T14:52:06.812Z,44.40
2018-05-26T14:55:16.386Z,42.90
2018-05-26T14:58:25.979Z,43.10
2018-05-26T15:01:36.315Z,41.10
2018-05-26T15:04:45.833Z,40.50
2018-05-26T15:07:55.385Z,41.00
2018-05-26T15:11:04.938Z,41.70
2018-05-26T15:14:14.336Z,41.90
2018-05-26T15:17:24.645Z,44.80
2018-05-26T15:20:36.936Z,46.90
2018-05-26T15:23:46.239Z,48.20
2018-05-26T15:26:55.775Z,50.20
2018-05-26T15:30:05.348Z,48.50
2018-05-26T15:33:14.788Z,46.70
2018-05-26T15:36:24.316Z,44.90
2018-05-26T15:39:33.916Z,45.00
2018-05-26T15:42:43.838Z,47.10
2018-05-26T15:45:56.602Z,50.30
2018-05-26T15:49:06.779Z,50.50
2018-05-26T15:52:17.141Z,51.70
2018-05-26T15:55:26.468Z,49.30
2018-05-26T15:58:38.125Z,45.60
2018-05-26T16:01:47.605Z,43.60
2018-05-26T16:04:57.052Z,44.30
2018-05-26T16:08:06.389Z,43.40
2018-05-26T16:11:15.781Z,44.70
2018-05-26T16:14:25.174Z,45.40
2018-05-26T16:17:34.525Z,42.90
2018-05-26T16:20:43.932Z,44.10
2018-05-26T16:23:53.688Z,46.30
2018-05-26T16:27:03.209Z,45.70
2018-05-26T16:30:13.962Z,44.60
2018-05-26T16:33:23.244Z,44.80
2018-05-26T16:36:32.754Z,44.70
2018-05-26T16:39:42.090Z,45.20
2018-05-26T16:42:55.628Z,45.00
2018-05-26T16:46:04.991Z,45.90
2018-05-26T16:49:14.459Z,44.60
2018-05-26T16:52:24.037Z,45.30
2018-05-26T16:55:33.344Z,45.30
2018-05-26T16:58:42.796Z,44.40
2018-05-26T17:01:52.305Z,45.60
2018-05-26T17:05:01.808Z,46.00
2018-05-26T17:08:11.257Z,46.00
2018-05-26T17:11:21.501Z,46.00
2018-05-26T17:14:31.109Z,46.60
2018-05-26T17:17:42.362Z,47.00
2018-05-26T17:20:51.727Z,45.40
2018-05-26T17:24:01.245Z,45.30
2018-05-26T17:27:10.730Z,46.90
2018-05-26T17:30:20.042Z,48.90
2018-05-26T17:33:29.517Z,47.90
2018-05-26T17:36:39.867Z,47.50
2018-05-26T17:39:49.298Z,48.60
2018-05-26T17:42:58.722Z,48.70
2018-05-26T17:46:08.310Z,49.70
2018-05-26T17:49:17.676Z,49.40
2018-05-26T17:52:27.278Z,49.50
2018-05-26T17:55:37.651Z,49.80
2018-05-26T17:58:46.988Z,51.60
2018-05-26T18:01:57.449Z,50.50
2018-05-26T18:05:07.279Z,51.90
2018-05-26T18:08:16.738Z,51.90
2018-05-26T18:11:29.787Z,51.60
2018-05-26T18:14:39.098Z,53.20
2018-05-26T18:17:48.547Z,53.60
2018-05-26T18:20:58.167Z,53.30
2018-05-26T18:24:08.669Z,53.80
2018-05-26T18:27:18.886Z,53.60
2018-05-26T18:30:29.003Z,55.70
2018-05-26T18:33:39.097Z,56.80
2018-05-26T18:36:48.580Z,58.70
2018-05-26T18:39:59.102Z,57.90
2018-05-26T18:43:09.288Z,59.30
2018-05-26T18:46:19.121Z,61.70
2018-05-26T18:49:28.617Z,65.80
2018-05-26T18:52:38.196Z,68.00
2018-05-26T18:55:48.273Z,66.50
2018-05-26T18:58:58.367Z,67.80
2018-05-26T19:02:08.624Z,69.50
2018-05-26T19:05:18.020Z,74.50
2018-05-26T19:08:28.285Z,71.30
2018-05-26T19:11:37.837Z,75.20
2018-05-26T19:14:49.164Z,73.40
2018-05-26T19:17:59.316Z,73.90
2018-05-26T19:21:09.300Z,75.10
2018-05-26T19:24:19.388Z,76.70
2018-05-26T19:27:28.973Z,81.80
2018-05-26T19:30:38.488Z,83.40
2018-05-26T19:33:50.047Z,80.40
2018-05-26T19:37:00.240Z,82.30
2018-05-26T19:40:09.585Z,87.60
2018-05-26T19:43:19.916Z,84.30
2018-05-26T19:46:29.283Z,90.80
2018-05-26T19:49:43.416Z,91.40
2018-05-26T19:52:53.561Z,89.10
2018-05-26T19:56:03.449Z,90.60
2018-05-26T19:59:13.749Z,91.10
2018-05-26T20:02:23.952Z,91.80
2018-05-26T20:05:34.205Z,92.80
2018-05-26T20:08:44.332Z,93.50
2018-05-26T20:11:54.680Z,94.50
2018-05-26T20:15:04.564Z,95.10
2018-05-26T20:18:14.119Z,98.00
2018-05-26T20:21:24.420Z,95.80
2018-05-26T20:24:35.448Z,97.30
2018-05-26T20:27:45.584Z,97.40
2018-05-26T20:30:55.448Z,98.40
2018-05-26T20:34:05.456Z,98.70
2018-05-26T20:37:15.478Z,99.00
2018-05-26T20:40:25.327Z,99.70
2018-05-26T20:43:35.245Z,99.00
2018-05-26T20:46:44.580Z,99.90
2018-05-26T20:49:54.440Z,99.50
2018-05-26T20:53:04.620Z,99.70
2018-05-26T20:56:14.989Z,99.90
2018-05-26T20:59:25.025Z,99.90
2018-05-26T21:02:35.316Z,99.90
2018-05-26T21:05:44.821Z,99.90
2018-05-26T21:08:55.790Z,99.90
2018-05-26T21:12:05.153Z,99.90
2018-05-26T21:15:14.728Z,99.90
2018-05-26T21:18:24.783Z,99.90
2018-05-26T21:21:35.150Z,99.90
2018-05-26T21:24:48.697Z,99.90
2018-05-26T21:27:58.226Z,99.90
2018-05-26T21:31:08.165Z,99.90
2018-05-26T21:34:17.693Z,99.90
2018-05-26T21:37:27.202Z,99.90
2018-05-26T21:40:36.641Z,99.90
2018-05-26T21:43:46.154Z,99.90
2018-05-26T21:46:56.625Z,99.90
2018-05-26T21:50:10.541Z,99.90
2018-05-26T21:53:21.946Z,99.90
2018-05-26T21:56:31.553Z,99.90
2018-05-26T21:59:41.333Z,99.90
2018-05-26T22:02:55.544Z,99.90
2018-05-26T22:06:06.325Z,99.90
2018-05-26T22:09:16.140Z,99.90
2018-05-26T22:12:25.598Z,99.90
2018-05-26T22:15:35.729Z,99.90
2018-05-26T22:18:50.396Z,99.90
2018-05-26T22:22:00.991Z,99.90
2018-05-26T22:25:11.812Z,99.90
2018-05-26T22:28:21.960Z,99.90
2018-05-26T22:31:32.296Z,99.90
2018-05-26T22:34:41.856Z,99.90
2018-05-26T22:37:52.074Z,99.90
2018-05-26T22:41:01.393Z,99.90
2018-05-26T22:44:10.710Z,99.90
2018-05-26T22:47:20.791Z,99.90
2018-05-26T22:50:30.401Z,99.90
2018-05-26T22:53:39.860Z,99.90
2018-05-26T22:56:49.969Z,99.90
2018-05-26T23:00:00.223Z,99.90
2018-05-26T23:03:09.560Z,99.90
2018-05-26T23:06:19.008Z,99.90
2018-05-26T23:09:29.069Z,99.90
2018-05-26T23:12:38.863Z,99.90
2018-05-26T23:15:48.279Z,99.90
2018-05-26T23:18:57.766Z,99.90
2018-05-26T23:22:07.452Z,99.90
2018-05-26T23:25:16.897Z,99.90
2018-05-26T23:28:27.034Z,99.90
2018-05-26T23:31:37.224Z,99.90
2018-05-26T23:34:47.470Z,99.90
2018-05-26T23:37:57.465Z,99.90
2018-05-26T23:41:07.783Z,99.90
2018-05-26T23:44:17.764Z,99.90
2018-05-26T23:47:27.128Z,99.90
2018-05-26T23:50:36.733Z,99.90
2018-05-26T23:53:46.343Z,99.90
2018-05-26T23:56:55.916Z,99.90
